sensor_id;sensor_type;location;lat;lon;timestamp;P1;durP1;ratioP1;P2;durP2;ratioP2
64227;SDS011;50546;49.146;10.616;2022-10-30T00:02:04;15.43;;;7.20;;
64227;SDS011;50546;49.146;10.616;2022-10-30T00:04:30;13.73;;;7.18;;
64227;SDS011;50546;49.146;10.616;2022-10-30T00:06:55;14.02;;;6.70;;
64227;SDS011;50546;49.146;10.616;2022-10-30T00:09:20;14.75;;;7.57;;
64227;SDS011;50546;49.146;10.616;2022-10-30T00:11:45;16.20;;;8.07;;
64227;SDS011;50546;49.146;10.616;2022-10-30T00:14:11;16.77;;;7.60;;
64227;SDS011;50546;49.146;10.616;2022-10-30T00:16:37;17.88;;;7.78;;
64227;SDS011;50546;49.146;10.616;2022-10-30T00:19:03;14.35;;;6.18;;
64227;SDS011;50546;49.146;10.616;2022-10-30T00:21:28;16.20;;;6.97;;
64227;SDS011;50546;49.146;10.616;2022-10-30T00:23:54;14.15;;;6.32;;
64227;SDS011;50546;49.146;10.616;2022-10-30T00:26:20;12.27;;;7.00;;
64227;SDS011;50546;49.146;10.616;2022-10-30T00:28:50;11.57;;;6.45;;
64227;SDS011;50546;49.146;10.616;2022-10-30T00:31:16;12.25;;;6.55;;
64227;SDS011;50546;49.146;10.616;2022-10-30T00:33:42;14.60;;;6.65;;
64227;SDS011;50546;49.146;10.616;2022-10-30T00:36:07;12.43;;;6.82;;
64227;SDS011;50546;49.146;10.616;2022-10-30T00:38:33;15.48;;;6.80;;
64227;SDS011;50546;49.146;10.616;2022-10-30T00:40:58;16.55;;;6.65;;
64227;SDS011;50546;49.146;10.616;2022-10-30T00:43:44;15.65;;;6.68;;
64227;SDS011;50546;49.146;10.616;2022-10-30T00:46:29;10.35;;;5.57;;
64227;SDS011;50546;49.146;10.616;2022-10-30T00:49:00;12.43;;;5.47;;
64227;SDS011;50546;49.146;10.616;2022-10-30T00:51:30;12.63;;;5.97;;
64227;SDS011;50546;49.146;10.616;2022-10-30T00:53:57;12.20;;;6.60;;
64227;SDS011;50546;49.146;10.616;2022-10-30T00:56:26;14.43;;;6.13;;
64227;SDS011;50546;49.146;10.616;2022-10-30T00:58:53;14.65;;;6.28;;
64227;SDS011;50546;49.146;10.616;2022-10-30T01:01:23;13.32;;;5.45;;
64227;SDS011;50546;49.146;10.616;2022-10-30T01:03:52;13.80;;;5.78;;
64227;SDS011;50546;49.146;10.616;2022-10-30T01:08:47;10.27;;;5.70;;
64227;SDS011;50546;49.146;10.616;2022-10-30T01:11:14;14.88;;;6.05;;
64227;SDS011;50546;49.146;10.616;2022-10-30T01:13:40;12.20;;;6.25;;
64227;SDS011;50546;49.146;10.616;2022-10-30T01:18:47;13.05;;;6.47;;
64227;SDS011;50546;49.146;10.616;2022-10-30T01:21:35;17.48;;;6.53;;
64227;SDS011;50546;49.146;10.616;2022-10-30T01:26:48;15.07;;;6.35;;
64227;SDS011;50546;49.146;10.616;2022-10-30T01:39:46;13.95;;;6.20;;
64227;SDS011;50546;49.146;10.616;2022-10-30T01:54:13;13.30;;;6.53;;
64227;SDS011;50546;49.146;10.616;2022-10-30T01:59:44;14.63;;;6.05;;
64227;SDS011;50546;49.146;10.616;2022-10-30T02:02:15;13.25;;;5.80;;
64227;SDS011;50546;49.146;10.616;2022-10-30T02:04:41;16.00;;;6.30;;
64227;SDS011;50546;49.146;10.616;2022-10-30T02:07:06;13.85;;;6.60;;
64227;SDS011;50546;49.146;10.616;2022-10-30T02:09:32;16.90;;;8.05;;
64227;SDS011;50546;49.146;10.616;2022-10-30T02:11:58;22.95;;;10.13;;
64227;SDS011;50546;49.146;10.616;2022-10-30T02:14:27;18.30;;;8.48;;
64227;SDS011;50546;49.146;10.616;2022-10-30T02:16:57;15.27;;;7.38;;
64227;SDS011;50546;49.146;10.616;2022-10-30T02:19:26;15.73;;;7.55;;
64227;SDS011;50546;49.146;10.616;2022-10-30T02:21:51;17.15;;;8.40;;
64227;SDS011;50546;49.146;10.616;2022-10-30T02:24:16;15.27;;;7.82;;
64227;SDS011;50546;49.146;10.616;2022-10-30T02:26:42;20.38;;;9.48;;
64227;SDS011;50546;49.146;10.616;2022-10-30T02:29:07;17.90;;;7.53;;
64227;SDS011;50546;49.146;10.616;2022-10-30T02:31:32;14.18;;;7.20;;
64227;SDS011;50546;49.146;10.616;2022-10-30T02:33:58;12.93;;;6.80;;
64227;SDS011;50546;49.146;10.616;2022-10-30T02:36:23;15.07;;;6.53;;
64227;SDS011;50546;49.146;10.616;2022-10-30T02:38:49;16.63;;;6.72;;
64227;SDS011;50546;49.146;10.616;2022-10-30T02:41:14;12.05;;;6.40;;
64227;SDS011;50546;49.146;10.616;2022-10-30T02:43:39;12.60;;;6.35;;
64227;SDS011;50546;49.146;10.616;2022-10-30T02:46:05;13.90;;;6.40;;
64227;SDS011;50546;49.146;10.616;2022-10-30T02:48:30;16.20;;;7.00;;
64227;SDS011;50546;49.146;10.616;2022-10-30T02:50:59;15.00;;;6.50;;
64227;SDS011;50546;49.146;10.616;2022-10-30T02:53:25;14.88;;;7.45;;
64227;SDS011;50546;49.146;10.616;2022-10-30T02:55:50;13.82;;;6.70;;
64227;SDS011;50546;49.146;10.616;2022-10-30T02:58:16;19.13;;;7.05;;
64227;SDS011;50546;49.146;10.616;2022-10-30T03:00:41;14.77;;;6.82;;
64227;SDS011;50546;49.146;10.616;2022-10-30T03:03:06;12.77;;;6.57;;
64227;SDS011;50546;49.146;10.616;2022-10-30T03:05:32;13.98;;;6.55;;
64227;SDS011;50546;49.146;10.616;2022-10-30T03:07:57;19.08;;;7.05;;
64227;SDS011;50546;49.146;10.616;2022-10-30T03:10:22;15.02;;;6.72;;
64227;SDS011;50546;49.146;10.616;2022-10-30T03:12:47;12.90;;;6.63;;
64227;SDS011;50546;49.146;10.616;2022-10-30T03:15:13;14.18;;;6.20;;
64227;SDS011;50546;49.146;10.616;2022-10-30T03:17:38;14.60;;;6.15;;
64227;SDS011;50546;49.146;10.616;2022-10-30T03:20:03;14.07;;;5.70;;
64227;SDS011;50546;49.146;10.616;2022-10-30T03:22:29;13.63;;;5.75;;
64227;SDS011;50546;49.146;10.616;2022-10-30T03:24:54;12.40;;;4.93;;
64227;SDS011;50546;49.146;10.616;2022-10-30T03:27:19;12.65;;;5.95;;
64227;SDS011;50546;49.146;10.616;2022-10-30T03:29:45;11.98;;;6.43;;
64227;SDS011;50546;49.146;10.616;2022-10-30T03:32:10;12.93;;;6.80;;
64227;SDS011;50546;49.146;10.616;2022-10-30T03:34:36;12.68;;;6.47;;
64227;SDS011;50546;49.146;10.616;2022-10-30T03:37:01;13.20;;;7.03;;
64227;SDS011;50546;49.146;10.616;2022-10-30T03:39:26;12.85;;;6.30;;
64227;SDS011;50546;49.146;10.616;2022-10-30T03:41:51;14.35;;;6.03;;
64227;SDS011;50546;49.146;10.616;2022-10-30T03:44:17;17.63;;;7.03;;
64227;SDS011;50546;49.146;10.616;2022-10-30T03:46:42;13.43;;;7.45;;
64227;SDS011;50546;49.146;10.616;2022-10-30T03:49:07;11.73;;;6.03;;
64227;SDS011;50546;49.146;10.616;2022-10-30T03:51:33;12.10;;;5.28;;
64227;SDS011;50546;49.146;10.616;2022-10-30T03:53:58;9.38;;;4.80;;
64227;SDS011;50546;49.146;10.616;2022-10-30T03:56:23;11.05;;;4.38;;
64227;SDS011;50546;49.146;10.616;2022-10-30T03:58:48;8.27;;;4.32;;
64227;SDS011;50546;49.146;10.616;2022-10-30T04:01:14;10.95;;;4.20;;
64227;SDS011;50546;49.146;10.616;2022-10-30T04:03:39;8.98;;;4.47;;
64227;SDS011;50546;49.146;10.616;2022-10-30T04:06:04;9.40;;;4.63;;
64227;SDS011;50546;49.146;10.616;2022-10-30T04:08:30;8.52;;;4.68;;
64227;SDS011;50546;49.146;10.616;2022-10-30T04:10:56;10.18;;;5.32;;
64227;SDS011;50546;49.146;10.616;2022-10-30T04:13:21;10.77;;;5.30;;
64227;SDS011;50546;49.146;10.616;2022-10-30T04:15:47;8.60;;;4.50;;
64227;SDS011;50546;49.146;10.616;2022-10-30T04:18:16;10.10;;;4.80;;
64227;SDS011;50546;49.146;10.616;2022-10-30T04:20:42;10.00;;;4.55;;
64227;SDS011;50546;49.146;10.616;2022-10-30T04:23:09;9.57;;;4.60;;
64227;SDS011;50546;49.146;10.616;2022-10-30T04:25:41;10.55;;;4.75;;
64227;SDS011;50546;49.146;10.616;2022-10-30T04:28:07;8.40;;;4.50;;
64227;SDS011;50546;49.146;10.616;2022-10-30T04:30:32;8.77;;;4.50;;
64227;SDS011;50546;49.146;10.616;2022-10-30T04:33:01;11.35;;;4.18;;
64227;SDS011;50546;49.146;10.616;2022-10-30T04:35:29;9.43;;;4.60;;
64227;SDS011;50546;49.146;10.616;2022-10-30T04:38:02;10.48;;;5.18;;
64227;SDS011;50546;49.146;10.616;2022-10-30T04:40:31;11.38;;;5.20;;
64227;SDS011;50546;49.146;10.616;2022-10-30T04:42:57;11.07;;;5.47;;
64227;SDS011;50546;49.146;10.616;2022-10-30T04:45:23;10.90;;;5.78;;
64227;SDS011;50546;49.146;10.616;2022-10-30T04:47:49;14.15;;;6.22;;
64227;SDS011;50546;49.146;10.616;2022-10-30T04:50:15;12.90;;;6.40;;
64227;SDS011;50546;49.146;10.616;2022-10-30T04:52:41;12.52;;;6.30;;
64227;SDS011;50546;49.146;10.616;2022-10-30T04:55:07;14.07;;;7.63;;
64227;SDS011;50546;49.146;10.616;2022-10-30T04:57:33;9.90;;;5.82;;
64227;SDS011;50546;49.146;10.616;2022-10-30T05:00:00;11.55;;;5.75;;
64227;SDS011;50546;49.146;10.616;2022-10-30T05:02:28;11.32;;;5.60;;
64227;SDS011;50546;49.146;10.616;2022-10-30T05:04:53;12.05;;;5.78;;
64227;SDS011;50546;49.146;10.616;2022-10-30T05:07:18;10.32;;;6.28;;
64227;SDS011;50546;49.146;10.616;2022-10-30T05:09:44;12.68;;;6.03;;
64227;SDS011;50546;49.146;10.616;2022-10-30T05:12:09;10.05;;;5.32;;
64227;SDS011;50546;49.146;10.616;2022-10-30T05:14:35;10.48;;;6.07;;
64227;SDS011;50546;49.146;10.616;2022-10-30T05:17:00;10.32;;;5.50;;
64227;SDS011;50546;49.146;10.616;2022-10-30T05:19:26;10.85;;;5.38;;
64227;SDS011;50546;49.146;10.616;2022-10-30T05:21:51;10.60;;;5.40;;
64227;SDS011;50546;49.146;10.616;2022-10-30T05:24:16;11.20;;;6.28;;
64227;SDS011;50546;49.146;10.616;2022-10-30T05:26:42;10.93;;;6.75;;
64227;SDS011;50546;49.146;10.616;2022-10-30T05:29:07;15.07;;;7.50;;
64227;SDS011;50546;49.146;10.616;2022-10-30T05:31:33;11.45;;;6.47;;
64227;SDS011;50546;49.146;10.616;2022-10-30T05:33:58;14.23;;;6.18;;
64227;SDS011;50546;49.146;10.616;2022-10-30T05:36:23;12.75;;;6.78;;
64227;SDS011;50546;49.146;10.616;2022-10-30T05:38:49;13.43;;;6.90;;
64227;SDS011;50546;49.146;10.616;2022-10-30T05:41:14;14.35;;;6.30;;
64227;SDS011;50546;49.146;10.616;2022-10-30T05:43:39;12.90;;;7.13;;
64227;SDS011;50546;49.146;10.616;2022-10-30T05:46:04;15.00;;;6.70;;
64227;SDS011;50546;49.146;10.616;2022-10-30T05:48:30;15.93;;;7.43;;
64227;SDS011;50546;49.146;10.616;2022-10-30T05:50:55;13.20;;;6.60;;
64227;SDS011;50546;49.146;10.616;2022-10-30T05:53:21;15.40;;;7.43;;
64227;SDS011;50546;49.146;10.616;2022-10-30T05:55:46;12.35;;;6.32;;
64227;SDS011;50546;49.146;10.616;2022-10-30T05:58:11;12.50;;;6.75;;
64227;SDS011;50546;49.146;10.616;2022-10-30T06:00:37;11.70;;;5.53;;
64227;SDS011;50546;49.146;10.616;2022-10-30T06:03:05;9.55;;;4.93;;
64227;SDS011;50546;49.146;10.616;2022-10-30T06:05:33;10.05;;;5.10;;
64227;SDS011;50546;49.146;10.616;2022-10-30T06:07:59;11.05;;;5.50;;
64227;SDS011;50546;49.146;10.616;2022-10-30T06:10:24;10.32;;;6.15;;
64227;SDS011;50546;49.146;10.616;2022-10-30T06:12:51;15.93;;;7.47;;
64227;SDS011;50546;49.146;10.616;2022-10-30T06:15:20;16.83;;;7.78;;
64227;SDS011;50546;49.146;10.616;2022-10-30T06:17:46;14.93;;;7.45;;
64227;SDS011;50546;49.146;10.616;2022-10-30T06:20:12;14.57;;;7.43;;
64227;SDS011;50546;49.146;10.616;2022-10-30T06:22:37;14.75;;;7.32;;
64227;SDS011;50546;49.146;10.616;2022-10-30T06:25:02;13.85;;;7.15;;
64227;SDS011;50546;49.146;10.616;2022-10-30T06:27:28;12.32;;;6.70;;
64227;SDS011;50546;49.146;10.616;2022-10-30T06:29:53;12.00;;;5.70;;
64227;SDS011;50546;49.146;10.616;2022-10-30T06:32:20;12.13;;;6.10;;
64227;SDS011;50546;49.146;10.616;2022-10-30T06:34:45;11.73;;;5.90;;
64227;SDS011;50546;49.146;10.616;2022-10-30T06:37:11;10.10;;;5.75;;
64227;SDS011;50546;49.146;10.616;2022-10-30T06:39:36;10.05;;;5.85;;
64227;SDS011;50546;49.146;10.616;2022-10-30T06:42:01;9.15;;;5.60;;
64227;SDS011;50546;49.146;10.616;2022-10-30T06:44:27;9.98;;;5.82;;
64227;SDS011;50546;49.146;10.616;2022-10-30T06:46:52;12.73;;;6.68;;
64227;SDS011;50546;49.146;10.616;2022-10-30T06:49:18;11.35;;;6.45;;
64227;SDS011;50546;49.146;10.616;2022-10-30T06:51:43;11.50;;;6.22;;
64227;SDS011;50546;49.146;10.616;2022-10-30T06:54:09;15.70;;;6.15;;
64227;SDS011;50546;49.146;10.616;2022-10-30T06:56:34;19.85;;;10.27;;
64227;SDS011;50546;49.146;10.616;2022-10-30T06:58:59;16.00;;;9.07;;
64227;SDS011;50546;49.146;10.616;2022-10-30T07:01:25;13.10;;;7.88;;
64227;SDS011;50546;49.146;10.616;2022-10-30T07:03:50;15.60;;;8.15;;
64227;SDS011;50546;49.146;10.616;2022-10-30T07:06:15;12.55;;;7.75;;
64227;SDS011;50546;49.146;10.616;2022-10-30T07:08:40;11.82;;;6.18;;
64227;SDS011;50546;49.146;10.616;2022-10-30T07:11:06;12.48;;;6.60;;
64227;SDS011;50546;49.146;10.616;2022-10-30T07:13:31;12.32;;;6.75;;
64227;SDS011;50546;49.146;10.616;2022-10-30T07:15:59;14.93;;;9.15;;
64227;SDS011;50546;49.146;10.616;2022-10-30T07:18:24;18.38;;;10.63;;
64227;SDS011;50546;49.146;10.616;2022-10-30T07:20:53;14.48;;;9.40;;
64227;SDS011;50546;49.146;10.616;2022-10-30T07:23:20;11.35;;;6.90;;
64227;SDS011;50546;49.146;10.616;2022-10-30T07:25:45;14.18;;;7.25;;
64227;SDS011;50546;49.146;10.616;2022-10-30T07:28:10;13.27;;;7.25;;
64227;SDS011;50546;49.146;10.616;2022-10-30T07:30:36;13.20;;;7.90;;
64227;SDS011;50546;49.146;10.616;2022-10-30T07:33:03;11.48;;;6.80;;
64227;SDS011;50546;49.146;10.616;2022-10-30T07:35:30;13.38;;;7.10;;
64227;SDS011;50546;49.146;10.616;2022-10-30T07:38:03;12.18;;;6.30;;
64227;SDS011;50546;49.146;10.616;2022-10-30T07:40:30;13.95;;;6.93;;
64227;SDS011;50546;49.146;10.616;2022-10-30T07:42:57;13.15;;;7.10;;
64227;SDS011;50546;49.146;10.616;2022-10-30T07:45:23;13.65;;;6.68;;
64227;SDS011;50546;49.146;10.616;2022-10-30T07:47:50;13.07;;;5.95;;
64227;SDS011;50546;49.146;10.616;2022-10-30T07:50:15;12.02;;;6.53;;
64227;SDS011;50546;49.146;10.616;2022-10-30T07:52:41;14.30;;;7.40;;
64227;SDS011;50546;49.146;10.616;2022-10-30T07:55:06;13.00;;;7.85;;
64227;SDS011;50546;49.146;10.616;2022-10-30T07:57:35;15.23;;;8.00;;
64227;SDS011;50546;49.146;10.616;2022-10-30T08:00:05;12.18;;;8.65;;
64227;SDS011;50546;49.146;10.616;2022-10-30T08:02:32;12.02;;;6.70;;
64227;SDS011;50546;49.146;10.616;2022-10-30T08:04:57;12.68;;;6.68;;
64227;SDS011;50546;49.146;10.616;2022-10-30T08:07:23;14.75;;;9.35;;
64227;SDS011;50546;49.146;10.616;2022-10-30T08:09:48;13.23;;;7.30;;
64227;SDS011;50546;49.146;10.616;2022-10-30T08:12:13;11.88;;;6.57;;
64227;SDS011;50546;49.146;10.616;2022-10-30T08:14:39;12.60;;;6.57;;
64227;SDS011;50546;49.146;10.616;2022-10-30T08:17:05;10.52;;;6.97;;
64227;SDS011;50546;49.146;10.616;2022-10-30T08:19:31;12.82;;;7.18;;
64227;SDS011;50546;49.146;10.616;2022-10-30T08:21:57;11.75;;;6.57;;
64227;SDS011;50546;49.146;10.616;2022-10-30T08:24:22;11.23;;;6.90;;
64227;SDS011;50546;49.146;10.616;2022-10-30T08:26:50;12.85;;;6.90;;
64227;SDS011;50546;49.146;10.616;2022-10-30T08:29:16;11.93;;;6.50;;
64227;SDS011;50546;49.146;10.616;2022-10-30T08:31:41;11.05;;;6.28;;
64227;SDS011;50546;49.146;10.616;2022-10-30T08:34:07;11.65;;;6.55;;
64227;SDS011;50546;49.146;10.616;2022-10-30T08:36:33;13.85;;;7.07;;
64227;SDS011;50546;49.146;10.616;2022-10-30T08:38:59;11.15;;;6.43;;
64227;SDS011;50546;49.146;10.616;2022-10-30T08:41:24;12.40;;;6.15;;
64227;SDS011;50546;49.146;10.616;2022-10-30T08:43:49;11.02;;;5.82;;
64227;SDS011;50546;49.146;10.616;2022-10-30T08:46:14;13.15;;;6.45;;
64227;SDS011;50546;49.146;10.616;2022-10-30T08:48:40;11.60;;;6.40;;
64227;SDS011;50546;49.146;10.616;2022-10-30T08:51:05;15.45;;;6.72;;
64227;SDS011;50546;49.146;10.616;2022-10-30T08:53:31;10.63;;;6.22;;
64227;SDS011;50546;49.146;10.616;2022-10-30T08:55:56;10.77;;;6.57;;
64227;SDS011;50546;49.146;10.616;2022-10-30T08:58:21;12.00;;;6.57;;
64227;SDS011;50546;49.146;10.616;2022-10-30T09:00:47;12.27;;;6.45;;
64227;SDS011;50546;49.146;10.616;2022-10-30T09:03:12;11.65;;;8.00;;
64227;SDS011;50546;49.146;10.616;2022-10-30T09:05:37;15.68;;;11.00;;
64227;SDS011;50546;49.146;10.616;2022-10-30T09:08:02;14.00;;;7.97;;
64227;SDS011;50546;49.146;10.616;2022-10-30T09:10:28;14.88;;;8.73;;
64227;SDS011;50546;49.146;10.616;2022-10-30T09:12:54;11.30;;;7.95;;
64227;SDS011;50546;49.146;10.616;2022-10-30T09:15:20;11.93;;;7.43;;
64227;SDS011;50546;49.146;10.616;2022-10-30T09:17:45;22.13;;;19.60;;
64227;SDS011;50546;49.146;10.616;2022-10-30T09:20:11;19.13;;;10.45;;
64227;SDS011;50546;49.146;10.616;2022-10-30T09:22:39;10.93;;;7.07;;
64227;SDS011;50546;49.146;10.616;2022-10-30T09:25:06;20.65;;;10.27;;
64227;SDS011;50546;49.146;10.616;2022-10-30T09:27:35;12.65;;;7.88;;
64227;SDS011;50546;49.146;10.616;2022-10-30T09:30:02;21.43;;;10.83;;
64227;SDS011;50546;49.146;10.616;2022-10-30T09:32:27;29.33;;;14.70;;
64227;SDS011;50546;49.146;10.616;2022-10-30T09:34:52;24.35;;;11.52;;
64227;SDS011;50546;49.146;10.616;2022-10-30T09:37:18;15.63;;;7.70;;
64227;SDS011;50546;49.146;10.616;2022-10-30T09:39:43;38.80;;;17.05;;
64227;SDS011;50546;49.146;10.616;2022-10-30T09:47:21;12.70;;;6.43;;
64227;SDS011;50546;49.146;10.616;2022-10-30T09:58:35;11.45;;;6.35;;
64227;SDS011;50546;49.146;10.616;2022-10-30T10:01:27;12.07;;;6.10;;
64227;SDS011;50546;49.146;10.616;2022-10-30T10:07:27;11.15;;;7.05;;
64227;SDS011;50546;49.146;10.616;2022-10-30T10:09:51;15.82;;;7.10;;
64227;SDS011;50546;49.146;10.616;2022-10-30T10:12:24;15.35;;;7.60;;
64227;SDS011;50546;49.146;10.616;2022-10-30T10:14:54;14.35;;;7.20;;
64227;SDS011;50546;49.146;10.616;2022-10-30T10:17:35;13.93;;;6.82;;
64227;SDS011;50546;49.146;10.616;2022-10-30T10:20:05;13.80;;;7.65;;
64227;SDS011;50546;49.146;10.616;2022-10-30T10:22:45;12.50;;;6.88;;
64227;SDS011;50546;49.146;10.616;2022-10-30T10:25:15;12.50;;;6.50;;
64227;SDS011;50546;49.146;10.616;2022-10-30T10:27:47;16.35;;;6.88;;
64227;SDS011;50546;49.146;10.616;2022-10-30T10:30:20;12.02;;;6.80;;
64227;SDS011;50546;49.146;10.616;2022-10-30T10:46:15;10.60;;;6.50;;
64227;SDS011;50546;49.146;10.616;2022-10-30T10:48:54;12.02;;;6.35;;
64227;SDS011;50546;49.146;10.616;2022-10-30T10:51:36;13.05;;;6.03;;
64227;SDS011;50546;49.146;10.616;2022-10-30T10:54:07;12.90;;;6.55;;
64227;SDS011;50546;49.146;10.616;2022-10-30T10:56:39;12.70;;;6.43;;
64227;SDS011;50546;49.146;10.616;2022-10-30T10:59:13;12.13;;;7.35;;
64227;SDS011;50546;49.146;10.616;2022-10-30T11:01:57;13.13;;;6.53;;
64227;SDS011;50546;49.146;10.616;2022-10-30T11:04:36;14.40;;;6.43;;
64227;SDS011;50546;49.146;10.616;2022-10-30T11:07:23;12.48;;;6.70;;
64227;SDS011;50546;49.146;10.616;2022-10-30T11:09:54;11.45;;;6.82;;
64227;SDS011;50546;49.146;10.616;2022-10-30T11:12:30;15.43;;;8.50;;
64227;SDS011;50546;49.146;10.616;2022-10-30T11:15:00;15.88;;;6.63;;
64227;SDS011;50546;49.146;10.616;2022-10-30T11:17:44;10.70;;;6.78;;
64227;SDS011;50546;49.146;10.616;2022-10-30T11:20:19;20.40;;;11.57;;
64227;SDS011;50546;49.146;10.616;2022-10-30T11:22:52;20.65;;;11.43;;
64227;SDS011;50546;49.146;10.616;2022-10-30T11:25:18;17.88;;;7.55;;
64227;SDS011;50546;49.146;10.616;2022-10-30T11:27:46;10.52;;;5.28;;
64227;SDS011;50546;49.146;10.616;2022-10-30T11:30:17;10.95;;;6.15;;
64227;SDS011;50546;49.146;10.616;2022-10-30T11:32:44;13.27;;;6.13;;
64227;SDS011;50546;49.146;10.616;2022-10-30T11:35:11;12.45;;;6.00;;
64227;SDS011;50546;49.146;10.616;2022-10-30T11:37:39;12.35;;;7.10;;
64227;SDS011;50546;49.146;10.616;2022-10-30T11:42:34;13.90;;;7.90;;
64227;SDS011;50546;49.146;10.616;2022-10-30T11:45:00;12.10;;;5.18;;
64227;SDS011;50546;49.146;10.616;2022-10-30T11:47:36;12.55;;;5.40;;
64227;SDS011;50546;49.146;10.616;2022-10-30T11:50:12;10.82;;;4.95;;
64227;SDS011;50546;49.146;10.616;2022-10-30T11:52:42;13.55;;;5.65;;
64227;SDS011;50546;49.146;10.616;2022-10-30T11:55:26;11.80;;;3.72;;
64227;SDS011;50546;49.146;10.616;2022-10-30T11:57:56;11.75;;;4.13;;
64227;SDS011;50546;49.146;10.616;2022-10-30T12:00:26;14.90;;;4.18;;
64227;SDS011;50546;49.146;10.616;2022-10-30T12:02:54;9.77;;;3.20;;
64227;SDS011;50546;49.146;10.616;2022-10-30T12:07:49;11.02;;;3.97;;
64227;SDS011;50546;49.146;10.616;2022-10-30T12:10:28;10.27;;;4.10;;
64227;SDS011;50546;49.146;10.616;2022-10-30T12:12:54;15.38;;;4.55;;
64227;SDS011;50546;49.146;10.616;2022-10-30T12:15:22;9.82;;;4.60;;
64227;SDS011;50546;49.146;10.616;2022-10-30T12:17:53;10.98;;;4.65;;
64227;SDS011;50546;49.146;10.616;2022-10-30T12:20:23;9.43;;;4.00;;
64227;SDS011;50546;49.146;10.616;2022-10-30T12:22:48;11.13;;;4.10;;
64227;SDS011;50546;49.146;10.616;2022-10-30T12:25:35;13.88;;;4.20;;
64227;SDS011;50546;49.146;10.616;2022-10-30T12:28:11;9.68;;;4.38;;
64227;SDS011;50546;49.146;10.616;2022-10-30T12:30:50;11.77;;;4.32;;
64227;SDS011;50546;49.146;10.616;2022-10-30T12:33:19;10.68;;;4.60;;
64227;SDS011;50546;49.146;10.616;2022-10-30T12:35:51;8.23;;;3.70;;
64227;SDS011;50546;49.146;10.616;2022-10-30T12:41:07;12.60;;;4.53;;
64227;SDS011;50546;49.146;10.616;2022-10-30T12:43:36;9.80;;;3.67;;
64227;SDS011;50546;49.146;10.616;2022-10-30T12:46:08;7.85;;;3.53;;
64227;SDS011;50546;49.146;10.616;2022-10-30T12:48:40;14.15;;;4.70;;
64227;SDS011;50546;49.146;10.616;2022-10-30T12:51:22;14.43;;;4.25;;
64227;SDS011;50546;49.146;10.616;2022-10-30T12:53:57;10.93;;;3.60;;
64227;SDS011;50546;49.146;10.616;2022-10-30T13:01:56;12.80;;;5.45;;
64227;SDS011;50546;49.146;10.616;2022-10-30T13:04:37;11.32;;;4.53;;
64227;SDS011;50546;49.146;10.616;2022-10-30T13:09:48;14.70;;;6.53;;
64227;SDS011;50546;49.146;10.616;2022-10-30T13:12:26;10.82;;;4.15;;
64227;SDS011;50546;49.146;10.616;2022-10-30T13:15:09;13.95;;;4.28;;
64227;SDS011;50546;49.146;10.616;2022-10-30T13:17:40;12.15;;;3.90;;
64227;SDS011;50546;49.146;10.616;2022-10-30T13:20:10;10.30;;;4.05;;
64227;SDS011;50546;49.146;10.616;2022-10-30T13:25:33;11.90;;;3.50;;
64227;SDS011;50546;49.146;10.616;2022-10-30T13:28:21;12.23;;;3.22;;
64227;SDS011;50546;49.146;10.616;2022-10-30T13:30:58;12.30;;;3.38;;
64227;SDS011;50546;49.146;10.616;2022-10-30T13:36:48;13.95;;;3.72;;
64227;SDS011;50546;49.146;10.616;2022-10-30T13:45:05;8.60;;;3.90;;
64227;SDS011;50546;49.146;10.616;2022-10-30T13:50:37;14.68;;;4.18;;
64227;SDS011;50546;49.146;10.616;2022-10-30T13:53:24;11.55;;;4.20;;
64227;SDS011;50546;49.146;10.616;2022-10-30T13:55:53;12.55;;;4.10;;
64227;SDS011;50546;49.146;10.616;2022-10-30T14:01:14;15.95;;;5.10;;
64227;SDS011;50546;49.146;10.616;2022-10-30T14:11:52;12.68;;;5.85;;
64227;SDS011;50546;49.146;10.616;2022-10-30T14:14:30;14.95;;;4.85;;
64227;SDS011;50546;49.146;10.616;2022-10-30T14:17:15;13.18;;;5.75;;
64227;SDS011;50546;49.146;10.616;2022-10-30T14:22:28;17.30;;;7.43;;
64227;SDS011;50546;49.146;10.616;2022-10-30T14:24:54;13.15;;;3.70;;
64227;SDS011;50546;49.146;10.616;2022-10-30T14:27:20;13.27;;;5.10;;
64227;SDS011;50546;49.146;10.616;2022-10-30T14:29:52;14.02;;;7.03;;
64227;SDS011;50546;49.146;10.616;2022-10-30T14:37:10;11.23;;;5.72;;
64227;SDS011;50546;49.146;10.616;2022-10-30T14:39:37;12.45;;;5.35;;
64227;SDS011;50546;49.146;10.616;2022-10-30T14:42:14;13.18;;;4.72;;
64227;SDS011;50546;49.146;10.616;2022-10-30T14:47:56;12.40;;;4.43;;
64227;SDS011;50546;49.146;10.616;2022-10-30T14:53:04;11.37;;;3.97;;
64227;SDS011;50546;49.146;10.616;2022-10-30T14:56:04;12.45;;;4.65;;
64227;SDS011;50546;49.146;10.616;2022-10-30T14:58:41;14.10;;;4.30;;
64227;SDS011;50546;49.146;10.616;2022-10-30T15:09:46;19.30;;;8.95;;
64227;SDS011;50546;49.146;10.616;2022-10-30T15:15:04;24.55;;;11.57;;
64227;SDS011;50546;49.146;10.616;2022-10-30T15:17:39;19.67;;;10.40;;
64227;SDS011;50546;49.146;10.616;2022-10-30T15:20:07;17.70;;;7.30;;
64227;SDS011;50546;49.146;10.616;2022-10-30T15:22:40;14.77;;;7.57;;
64227;SDS011;50546;49.146;10.616;2022-10-30T15:25:17;20.08;;;9.05;;
64227;SDS011;50546;49.146;10.616;2022-10-30T15:27:45;22.23;;;10.35;;
64227;SDS011;50546;49.146;10.616;2022-10-30T15:30:15;15.65;;;9.73;;
64227;SDS011;50546;49.146;10.616;2022-10-30T15:32:42;19.38;;;11.10;;
64227;SDS011;50546;49.146;10.616;2022-10-30T15:35:17;18.83;;;11.85;;
64227;SDS011;50546;49.146;10.616;2022-10-30T15:38:01;18.10;;;9.20;;
64227;SDS011;50546;49.146;10.616;2022-10-30T15:40:30;14.98;;;8.57;;
64227;SDS011;50546;49.146;10.616;2022-10-30T15:42:58;12.90;;;7.05;;
64227;SDS011;50546;49.146;10.616;2022-10-30T15:50:52;18.35;;;6.82;;
64227;SDS011;50546;49.146;10.616;2022-10-30T15:54:11;12.18;;;6.00;;
64227;SDS011;50546;49.146;10.616;2022-10-30T15:56:25;13.57;;;6.60;;
64227;SDS011;50546;49.146;10.616;2022-10-30T15:59:00;14.18;;;5.50;;
64227;SDS011;50546;49.146;10.616;2022-10-30T16:03:58;11.90;;;5.28;;
64227;SDS011;50546;49.146;10.616;2022-10-30T16:06:25;15.95;;;6.75;;
64227;SDS011;50546;49.146;10.616;2022-10-30T16:08:52;18.23;;;9.15;;
64227;SDS011;50546;49.146;10.616;2022-10-30T16:11:17;18.02;;;9.10;;
64227;SDS011;50546;49.146;10.616;2022-10-30T16:13:45;14.65;;;9.20;;
64227;SDS011;50546;49.146;10.616;2022-10-30T16:16:12;24.33;;;11.48;;
64227;SDS011;50546;49.146;10.616;2022-10-30T16:18:42;21.77;;;14.13;;
64227;SDS011;50546;49.146;10.616;2022-10-30T16:21:08;30.33;;;17.85;;
64227;SDS011;50546;49.146;10.616;2022-10-30T16:23:45;31.45;;;18.45;;
64227;SDS011;50546;49.146;10.616;2022-10-30T16:26:32;41.00;;;24.80;;
64227;SDS011;50546;49.146;10.616;2022-10-30T16:29:00;27.05;;;16.05;;
64227;SDS011;50546;49.146;10.616;2022-10-30T16:31:33;29.23;;;18.08;;
64227;SDS011;50546;49.146;10.616;2022-10-30T16:34:00;35.08;;;21.50;;
64227;SDS011;50546;49.146;10.616;2022-10-30T16:36:28;21.77;;;14.98;;
64227;SDS011;50546;49.146;10.616;2022-10-30T16:38:54;17.65;;;11.13;;
64227;SDS011;50546;49.146;10.616;2022-10-30T16:41:20;17.83;;;10.38;;
64227;SDS011;50546;49.146;10.616;2022-10-30T16:44:06;15.68;;;9.75;;
64227;SDS011;50546;49.146;10.616;2022-10-30T16:49:04;18.30;;;10.85;;
64227;SDS011;50546;49.146;10.616;2022-10-30T16:51:37;25.45;;;16.48;;